Aviation Digital Data Service (ADDS)

Output produced by METARs form (0640 UTC 24 March 2019)
found at http://www.aviationweather.gov/metar/data/
 
LBBG 240630Z 26005KT CAVOK 06/00 Q1023 NOSIG
TAF LBBG 240500Z 2406/2506 VRB04KT CAVOK 
     BECMG 2408/2410 12012KT 
     BECMG 2419/2421 VRB04KT
       
LBGO 240630Z AUTO VRB02KT 9999 NCD 05/M03 Q1024 NOSIG
TAF LBGO 240500Z 2406/2506 VRB04KT CAVOK 
     BECMG 2409/2411 33010KT SCT050 
     BECMG 2418/2420 VRB04KT
       
LBPD 240630Z AUTO 29004KT 260V330 9999 NCD 07/03 Q1024 NOSIG
TAF LBPD 240500Z 2406/2506 VRB04KT CAVOK 
     BECMG 2412/2414 11010KT SCT060 
     BECMG 2420/2422 VRB04KT
       
LBSF 240630Z 30003KT 270V350 CAVOK 06/01 Q1023 NOSIG
TAF LBSF 240500Z 2406/2506 VRB04KT CAVOK 
     BECMG 2410/2412 06010KT 
     BECMG 2418/2420 VRB04KT 
     TEMPO 2502/2506 4000 BR
       
LBWN 240630Z 35007KT 330V050 CAVOK 09/M06 Q1023 NOSIG
TAF LBWN 240500Z 2406/2506 VRB04KT CAVOK 
     BECMG 2409/2411 12012KT 
     BECMG 2418/2420 VRB04KT 
     BECMG 2503/2506 4000 BR